Charlevoix, Michigan
Current Conditions -  °F | °C
As of 7:55 PM on Saturday 25 Oct 2014 (Local Time) from KCVX Reporting Station
Clear Clear  
Wind Chill: 54°   Ceiling: Unl
Heat Index: 54°   Visibility: 10mi
Dew Point: 41°   Wind: 17mph
Humidity: 61%   Direction: 320°NW
Pressure: 29.78"   Gusts: 23mph
Location:  45.32°N, 85.26°W
Report Text: KCVX 252355Z AUTO 32015G20KT 10SM CLR 12/05 A2978 RMK AO2 T01240051 10150 20111
Loading
Personal Weather Stations






























Interactive Weather Map New forecast layout! Learn more

10-Day Weather Forecast

Advertisements
Track Severe Weather on mobile